Scarborough, Maine
Current Conditions -  °F | °C
As of 10:51 AM on Friday 24 Oct 2014 (Local Time) from KPWM Reporting Station
Overcast Overcast  
Wind Chill: 51°   Ceiling: 1500
Heat Index: 51°   Visibility: 10mi
Dew Point: 47°   Wind: 10mph
Humidity: 86%   Direction: 350°N
Pressure: 29.7"   Gusts: NA
Location:  43.6°N, 70.33°W
Report Text: KPWM 241451Z 35009KT 10SM BKN015 OVC024 11/08 A2970 RMK AO2 RAE38 SLP055 P0001 60003 T01060083 50004
Loading
Personal Weather Stations






























Interactive Weather Map
Tropical Storm Tracking
New forecast layout! Learn more

10-Day Weather Forecast

Advertisements
Track Severe Weather on mobile